sensor_id;sensor_type;location;lat;lon;timestamp;P1;durP1;ratioP1;P2;durP2;ratioP2
51901;SDS011;37929;53.218;6.548;2022-10-16T16:52:20;6.65;;;2.50;;
51901;SDS011;37929;53.218;6.548;2022-10-16T16:54:47;6.57;;;2.10;;
51901;SDS011;37929;53.218;6.548;2022-10-16T16:57:19;6.13;;;1.90;;
51901;SDS011;37929;53.218;6.548;2022-10-16T16:59:45;5.90;;;2.15;;
51901;SDS011;37929;53.218;6.548;2022-10-16T17:02:12;6.75;;;2.38;;
51901;SDS011;37929;53.218;6.548;2022-10-16T17:04:38;10.25;;;5.63;;
51901;SDS011;37929;53.218;6.548;2022-10-16T17:07:04;12.38;;;5.95;;
51901;SDS011;37929;53.218;6.548;2022-10-16T17:09:31;9.60;;;4.72;;
51901;SDS011;37929;53.218;6.548;2022-10-16T17:11:57;12.25;;;6.15;;
51901;SDS011;37929;53.218;6.548;2022-10-16T17:14:23;9.95;;;5.90;;
51901;SDS011;37929;53.218;6.548;2022-10-16T17:16:49;10.25;;;5.57;;
51901;SDS011;37929;53.218;6.548;2022-10-16T17:19:17;5.22;;;3.05;;
51901;SDS011;37929;53.218;6.548;2022-10-16T17:21:44;6.78;;;3.55;;
51901;SDS011;37929;53.218;6.548;2022-10-16T17:24:13;9.90;;;4.20;;
51901;SDS011;37929;53.218;6.548;2022-10-16T17:26:39;6.25;;;3.90;;
51901;SDS011;37929;53.218;6.548;2022-10-16T17:29:09;10.02;;;4.10;;
51901;SDS011;37929;53.218;6.548;2022-10-16T17:31:36;5.70;;;3.33;;
51901;SDS011;37929;53.218;6.548;2022-10-16T17:34:04;11.27;;;6.22;;
51901;SDS011;37929;53.218;6.548;2022-10-16T17:36:32;12.07;;;5.10;;
51901;SDS011;37929;53.218;6.548;2022-10-16T17:39:00;12.68;;;4.55;;
51901;SDS011;37929;53.218;6.548;2022-10-16T17:41:28;8.68;;;4.53;;
51901;SDS011;37929;53.218;6.548;2022-10-16T17:43:54;7.22;;;3.92;;
51901;SDS011;37929;53.218;6.548;2022-10-16T17:46:21;7.18;;;3.35;;
51901;SDS011;37929;53.218;6.548;2022-10-16T17:48:48;10.05;;;3.60;;
51901;SDS011;37929;53.218;6.548;2022-10-16T17:51:17;7.18;;;3.47;;
51901;SDS011;37929;53.218;6.548;2022-10-16T17:53:47;11.75;;;3.72;;
51901;SDS011;37929;53.218;6.548;2022-10-16T17:56:14;7.45;;;3.80;;
51901;SDS011;37929;53.218;6.548;2022-10-16T17:58:41;11.48;;;3.92;;
51901;SDS011;37929;53.218;6.548;2022-10-16T18:01:14;8.15;;;3.92;;
51901;SDS011;37929;53.218;6.548;2022-10-16T18:03:42;10.82;;;5.43;;
51901;SDS011;37929;53.218;6.548;2022-10-16T18:06:07;9.38;;;4.47;;
51901;SDS011;37929;53.218;6.548;2022-10-16T18:08:34;9.18;;;4.88;;
51901;SDS011;37929;53.218;6.548;2022-10-16T18:11:03;17.75;;;11.65;;
51901;SDS011;37929;53.218;6.548;2022-10-16T18:13:29;11.52;;;8.05;;
51901;SDS011;37929;53.218;6.548;2022-10-16T18:16:02;15.45;;;8.90;;
51901;SDS011;37929;53.218;6.548;2022-10-16T18:18:30;12.82;;;8.15;;
51901;SDS011;37929;53.218;6.548;2022-10-16T18:20:59;11.80;;;8.55;;
51901;SDS011;37929;53.218;6.548;2022-10-16T18:23:26;15.05;;;10.10;;
51901;SDS011;37929;53.218;6.548;2022-10-16T18:25:52;20.73;;;10.40;;
51901;SDS011;37929;53.218;6.548;2022-10-16T18:28:19;14.75;;;9.50;;
51901;SDS011;37929;53.218;6.548;2022-10-16T18:30:45;13.20;;;6.68;;
51901;SDS011;37929;53.218;6.548;2022-10-16T18:33:19;11.38;;;6.78;;
51901;SDS011;37929;53.218;6.548;2022-10-16T18:35:45;14.63;;;6.68;;
51901;SDS011;37929;53.218;6.548;2022-10-16T18:38:10;10.45;;;5.93;;
51901;SDS011;37929;53.218;6.548;2022-10-16T18:40:40;8.60;;;4.95;;
51901;SDS011;37929;53.218;6.548;2022-10-16T18:43:06;11.45;;;5.28;;
51901;SDS011;37929;53.218;6.548;2022-10-16T18:45:32;8.35;;;5.03;;
51901;SDS011;37929;53.218;6.548;2022-10-16T18:48:01;12.75;;;5.15;;
51901;SDS011;37929;53.218;6.548;2022-10-16T18:50:27;13.80;;;5.85;;
51901;SDS011;37929;53.218;6.548;2022-10-16T18:52:56;10.80;;;5.00;;
51901;SDS011;37929;53.218;6.548;2022-10-16T18:55:22;12.68;;;5.15;;
51901;SDS011;37929;53.218;6.548;2022-10-16T18:57:48;11.70;;;5.32;;
51901;SDS011;37929;53.218;6.548;2022-10-16T19:00:15;10.25;;;4.78;;
51901;SDS011;37929;53.218;6.548;2022-10-16T19:02:48;8.98;;;5.05;;
51901;SDS011;37929;53.218;6.548;2022-10-16T19:05:14;9.38;;;5.50;;
51901;SDS011;37929;53.218;6.548;2022-10-16T19:07:40;14.75;;;5.65;;
51901;SDS011;37929;53.218;6.548;2022-10-16T19:10:08;9.85;;;5.55;;
51901;SDS011;37929;53.218;6.548;2022-10-16T19:12:34;9.75;;;4.95;;
51901;SDS011;37929;53.218;6.548;2022-10-16T19:15:00;11.27;;;4.88;;
51901;SDS011;37929;53.218;6.548;2022-10-16T19:17:26;10.25;;;5.22;;
51901;SDS011;37929;53.218;6.548;2022-10-16T19:19:51;13.23;;;6.40;;
51901;SDS011;37929;53.218;6.548;2022-10-16T19:22:20;12.25;;;6.55;;
51901;SDS011;37929;53.218;6.548;2022-10-16T19:24:57;12.73;;;5.70;;
51901;SDS011;37929;53.218;6.548;2022-10-16T19:27:23;8.80;;;5.05;;
51901;SDS011;37929;53.218;6.548;2022-10-16T19:29:51;12.60;;;6.22;;
51901;SDS011;37929;53.218;6.548;2022-10-16T19:32:17;8.90;;;4.95;;
51901;SDS011;37929;53.218;6.548;2022-10-16T19:34:43;8.80;;;4.50;;
51901;SDS011;37929;53.218;6.548;2022-10-16T19:37:10;10.43;;;4.88;;
51901;SDS011;37929;53.218;6.548;2022-10-16T19:39:36;10.55;;;5.13;;
51901;SDS011;37929;53.218;6.548;2022-10-16T19:42:01;11.10;;;5.13;;
51901;SDS011;37929;53.218;6.548;2022-10-16T19:44:27;10.43;;;5.30;;
51901;SDS011;37929;53.218;6.548;2022-10-16T19:46:53;10.57;;;6.40;;
51901;SDS011;37929;53.218;6.548;2022-10-16T19:49:19;12.30;;;5.82;;
51901;SDS011;37929;53.218;6.548;2022-10-16T19:51:47;14.10;;;6.90;;
51901;SDS011;37929;53.218;6.548;2022-10-16T19:54:18;9.82;;;5.65;;
51901;SDS011;37929;53.218;6.548;2022-10-16T19:56:47;9.77;;;4.50;;
51901;SDS011;37929;53.218;6.548;2022-10-16T19:59:13;13.25;;;6.25;;
51901;SDS011;37929;53.218;6.548;2022-10-16T20:01:43;9.68;;;4.95;;
51901;SDS011;37929;53.218;6.548;2022-10-16T20:04:09;9.32;;;4.72;;
51901;SDS011;37929;53.218;6.548;2022-10-16T20:06:37;12.43;;;6.00;;
51901;SDS011;37929;53.218;6.548;2022-10-16T20:09:03;11.18;;;6.50;;
51901;SDS011;37929;53.218;6.548;2022-10-16T20:11:30;9.25;;;3.88;;
51901;SDS011;37929;53.218;6.548;2022-10-16T20:13:58;6.07;;;2.85;;
51901;SDS011;37929;53.218;6.548;2022-10-16T20:16:25;6.75;;;3.03;;
51901;SDS011;37929;53.218;6.548;2022-10-16T20:18:52;10.00;;;3.20;;
51901;SDS011;37929;53.218;6.548;2022-10-16T20:21:19;8.65;;;3.67;;
51901;SDS011;37929;53.218;6.548;2022-10-16T20:23:46;10.18;;;4.07;;
51901;SDS011;37929;53.218;6.548;2022-10-16T20:26:13;10.88;;;4.13;;
51901;SDS011;37929;53.218;6.548;2022-10-16T20:28:40;8.35;;;4.32;;
51901;SDS011;37929;53.218;6.548;2022-10-16T20:31:10;5.65;;;3.67;;
51901;SDS011;37929;53.218;6.548;2022-10-16T20:33:43;8.32;;;3.53;;
51901;SDS011;37929;53.218;6.548;2022-10-16T20:36:13;7.75;;;3.78;;
51901;SDS011;37929;53.218;6.548;2022-10-16T20:38:40;7.05;;;3.60;;
51901;SDS011;37929;53.218;6.548;2022-10-16T20:41:06;9.90;;;3.80;;
51901;SDS011;37929;53.218;6.548;2022-10-16T20:43:33;9.20;;;3.17;;
51901;SDS011;37929;53.218;6.548;2022-10-16T20:46:01;6.97;;;3.10;;
51901;SDS011;37929;53.218;6.548;2022-10-16T20:48:29;6.90;;;3.35;;
51901;SDS011;37929;53.218;6.548;2022-10-16T20:50:55;10.25;;;3.20;;
51901;SDS011;37929;53.218;6.548;2022-10-16T20:53:23;7.03;;;3.40;;
51901;SDS011;37929;53.218;6.548;2022-10-16T20:55:52;5.45;;;3.13;;
51901;SDS011;37929;53.218;6.548;2022-10-16T20:58:18;7.65;;;3.28;;
51901;SDS011;37929;53.218;6.548;2022-10-16T21:00:44;8.02;;;3.28;;
51901;SDS011;37929;53.218;6.548;2022-10-16T21:03:13;4.78;;;2.75;;
51901;SDS011;37929;53.218;6.548;2022-10-16T21:05:40;7.63;;;3.30;;
51901;SDS011;37929;53.218;6.548;2022-10-16T21:08:06;8.85;;;2.88;;
51901;SDS011;37929;53.218;6.548;2022-10-16T21:10:32;5.97;;;2.90;;
51901;SDS011;37929;53.218;6.548;2022-10-16T21:12:58;6.35;;;3.10;;
51901;SDS011;37929;53.218;6.548;2022-10-16T21:15:24;10.10;;;6.38;;
51901;SDS011;37929;53.218;6.548;2022-10-16T21:17:49;5.78;;;3.28;;
51901;SDS011;37929;53.218;6.548;2022-10-16T21:20:15;7.63;;;3.47;;
51901;SDS011;37929;53.218;6.548;2022-10-16T21:22:41;6.07;;;2.67;;
51901;SDS011;37929;53.218;6.548;2022-10-16T21:25:07;6.07;;;3.15;;
51901;SDS011;37929;53.218;6.548;2022-10-16T21:27:36;6.22;;;3.22;;
51901;SDS011;37929;53.218;6.548;2022-10-16T21:30:04;8.13;;;3.20;;
51901;SDS011;37929;53.218;6.548;2022-10-16T21:32:33;6.72;;;3.53;;
51901;SDS011;37929;53.218;6.548;2022-10-16T21:35:03;10.30;;;3.17;;
51901;SDS011;37929;53.218;6.548;2022-10-16T21:37:30;7.28;;;3.92;;
51901;SDS011;37929;53.218;6.548;2022-10-16T21:39:57;6.78;;;3.65;;
51901;SDS011;37929;53.218;6.548;2022-10-16T21:42:23;8.73;;;3.97;;
51901;SDS011;37929;53.218;6.548;2022-10-16T21:44:49;5.20;;;3.25;;
51901;SDS011;37929;53.218;6.548;2022-10-16T21:47:15;6.07;;;3.20;;
51901;SDS011;37929;53.218;6.548;2022-10-16T21:49:41;8.02;;;3.58;;
51901;SDS011;37929;53.218;6.548;2022-10-16T21:52:06;5.63;;;2.90;;
51901;SDS011;37929;53.218;6.548;2022-10-16T21:54:34;6.97;;;3.38;;
51901;SDS011;37929;53.218;6.548;2022-10-16T21:57:00;4.82;;;3.10;;
51901;SDS011;37929;53.218;6.548;2022-10-16T21:59:26;8.02;;;3.42;;
51901;SDS011;37929;53.218;6.548;2022-10-16T22:01:52;5.45;;;3.20;;
51901;SDS011;37929;53.218;6.548;2022-10-16T22:04:18;5.93;;;3.20;;
51901;SDS011;37929;53.218;6.548;2022-10-16T22:06:44;6.22;;;3.50;;
51901;SDS011;37929;53.218;6.548;2022-10-16T22:09:10;7.82;;;3.30;;
51901;SDS011;37929;53.218;6.548;2022-10-16T22:11:38;7.25;;;3.67;;
51901;SDS011;37929;53.218;6.548;2022-10-16T22:14:15;7.72;;;3.95;;
51901;SDS011;37929;53.218;6.548;2022-10-16T22:16:43;6.95;;;3.63;;
51901;SDS011;37929;53.218;6.548;2022-10-16T22:19:10;8.93;;;4.55;;
51901;SDS011;37929;53.218;6.548;2022-10-16T22:21:38;8.02;;;3.67;;
51901;SDS011;37929;53.218;6.548;2022-10-16T22:24:05;7.75;;;3.45;;
51901;SDS011;37929;53.218;6.548;2022-10-16T22:26:31;8.65;;;3.50;;
51901;SDS011;37929;53.218;6.548;2022-10-16T22:28:57;6.28;;;3.53;;
51901;SDS011;37929;53.218;6.548;2022-10-16T22:31:23;6.35;;;3.63;;
51901;SDS011;37929;53.218;6.548;2022-10-16T22:33:53;7.82;;;4.10;;
51901;SDS011;37929;53.218;6.548;2022-10-16T22:36:23;7.60;;;4.28;;
51901;SDS011;37929;53.218;6.548;2022-10-16T22:38:50;8.25;;;4.38;;
51901;SDS011;37929;53.218;6.548;2022-10-16T22:41:16;5.55;;;3.80;;
51901;SDS011;37929;53.218;6.548;2022-10-16T22:43:42;6.57;;;3.88;;
51901;SDS011;37929;53.218;6.548;2022-10-16T22:46:13;6.68;;;3.92;;
51901;SDS011;37929;53.218;6.548;2022-10-16T22:48:40;8.23;;;4.30;;
51901;SDS011;37929;53.218;6.548;2022-10-16T22:51:07;9.63;;;3.72;;
51901;SDS011;37929;53.218;6.548;2022-10-16T22:53:34;7.00;;;3.90;;
51901;SDS011;37929;53.218;6.548;2022-10-16T22:56:00;6.95;;;3.67;;
51901;SDS011;37929;53.218;6.548;2022-10-16T22:58:26;6.25;;;3.65;;
51901;SDS011;37929;53.218;6.548;2022-10-16T23:00:52;8.35;;;3.30;;
51901;SDS011;37929;53.218;6.548;2022-10-16T23:03:18;5.53;;;3.35;;
51901;SDS011;37929;53.218;6.548;2022-10-16T23:05:44;8.40;;;3.42;;
51901;SDS011;37929;53.218;6.548;2022-10-16T23:08:10;7.75;;;4.05;;
51901;SDS011;37929;53.218;6.548;2022-10-16T23:10:40;7.97;;;4.07;;
51901;SDS011;37929;53.218;6.548;2022-10-16T23:13:07;7.00;;;3.85;;
51901;SDS011;37929;53.218;6.548;2022-10-16T23:15:33;8.63;;;3.67;;
51901;SDS011;37929;53.218;6.548;2022-10-16T23:17:59;6.78;;;3.63;;
51901;SDS011;37929;53.218;6.548;2022-10-16T23:20:25;9.07;;;3.65;;
51901;SDS011;37929;53.218;6.548;2022-10-16T23:22:51;5.68;;;3.40;;
51901;SDS011;37929;53.218;6.548;2022-10-16T23:25:16;9.15;;;3.42;;
51901;SDS011;37929;53.218;6.548;2022-10-16T23:27:42;7.60;;;4.18;;
51901;SDS011;37929;53.218;6.548;2022-10-16T23:30:08;5.80;;;3.38;;
51901;SDS011;37929;53.218;6.548;2022-10-16T23:32:34;4.30;;;3.03;;
51901;SDS011;37929;53.218;6.548;2022-10-16T23:35:00;4.65;;;2.90;;
51901;SDS011;37929;53.218;6.548;2022-10-16T23:37:25;5.18;;;2.83;;
51901;SDS011;37929;53.218;6.548;2022-10-16T23:39:51;9.35;;;3.63;;
51901;SDS011;37929;53.218;6.548;2022-10-16T23:42:18;7.25;;;2.45;;
51901;SDS011;37929;53.218;6.548;2022-10-16T23:44:44;5.25;;;2.70;;
51901;SDS011;37929;53.218;6.548;2022-10-16T23:47:10;6.05;;;2.83;;
51901;SDS011;37929;53.218;6.548;2022-10-16T23:49:36;6.15;;;2.95;;
51901;SDS011;37929;53.218;6.548;2022-10-16T23:52:01;6.72;;;2.70;;
51901;SDS011;37929;53.218;6.548;2022-10-16T23:54:28;6.40;;;2.83;;
51901;SDS011;37929;53.218;6.548;2022-10-16T23:56:53;7.03;;;2.90;;
51901;SDS011;37929;53.218;6.548;2022-10-16T23:59:19;6.22;;;2.58;;
